createdAt,value
2022-08-26T00:01:56.433Z,15.07
2022-08-26T00:04:26.135Z,14.30
2022-08-26T00:06:54.978Z,14.60
2022-08-26T00:09:24.777Z,15.27
2022-08-26T00:11:53.517Z,14.67
2022-08-26T00:14:21.988Z,13.70
2022-08-26T00:16:50.392Z,14.37
2022-08-26T00:19:22.043Z,13.43
2022-08-26T00:21:51.310Z,13.83
2022-08-26T00:24:21.802Z,13.93
2022-08-26T00:26:50.917Z,14.00
2022-08-26T00:29:19.863Z,14.07
2022-08-26T00:31:49.838Z,14.77
2022-08-26T00:34:19.691Z,14.77
2022-08-26T00:36:51.747Z,15.20
2022-08-26T00:39:20.192Z,14.17
2022-08-26T00:41:48.736Z,15.63
2022-08-26T00:44:16.828Z,14.97
2022-08-26T00:46:47.367Z,15.47
2022-08-26T00:49:19.327Z,14.73
2022-08-26T00:51:52.194Z,15.00
2022-08-26T00:54:23.895Z,14.83
2022-08-26T00:56:59.904Z,15.07
2022-08-26T00:59:32.790Z,14.67
2022-08-26T01:02:02.777Z,14.70
2022-08-26T01:04:34.643Z,15.30
2022-08-26T01:07:04.983Z,15.33
2022-08-26T01:09:33.829Z,15.23
2022-08-26T01:12:04.240Z,15.10
2022-08-26T01:14:36.735Z,14.70
2022-08-26T01:17:07.210Z,14.43
2022-08-26T01:19:43.540Z,14.50
2022-08-26T01:22:18.589Z,15.73
2022-08-26T01:24:49.433Z,14.87
2022-08-26T01:27:20.648Z,14.53
2022-08-26T01:29:50.444Z,15.07
2022-08-26T01:32:22.374Z,14.73
2022-08-26T01:34:51.557Z,13.90
2022-08-26T01:37:24.807Z,13.63
2022-08-26T01:39:58.617Z,13.67
2022-08-26T01:42:28.466Z,13.20
2022-08-26T01:44:59.450Z,13.53
2022-08-26T01:47:31.122Z,14.80
2022-08-26T01:50:03.130Z,13.23
2022-08-26T01:52:34.410Z,14.40
2022-08-26T01:55:05.452Z,14.43
2022-08-26T01:57:35.748Z,14.63
2022-08-26T02:00:10.845Z,14.37
2022-08-26T02:02:38.910Z,14.67
2022-08-26T02:05:10.576Z,14.40
2022-08-26T02:07:39.807Z,15.10
2022-08-26T02:10:10.264Z,14.27
2022-08-26T02:12:39.115Z,15.20
2022-08-26T02:15:12.328Z,14.03
2022-08-26T02:17:44.535Z,15.17
2022-08-26T02:20:14.954Z,15.90
2022-08-26T02:22:43.496Z,15.00
2022-08-26T02:25:22.025Z,15.00
2022-08-26T02:27:51.494Z,15.00
2022-08-26T02:30:21.943Z,14.07
2022-08-26T02:32:51.875Z,14.03
2022-08-26T02:35:22.105Z,13.40
2022-08-26T02:37:51.188Z,14.80
2022-08-26T02:40:23.330Z,13.97
2022-08-26T02:42:53.162Z,15.60
2022-08-26T02:45:24.800Z,14.50
2022-08-26T02:47:53.265Z,14.87
2022-08-26T02:50:22.292Z,14.63
2022-08-26T02:52:50.361Z,14.97
2022-08-26T02:55:18.732Z,14.67
2022-08-26T02:57:48.308Z,14.27
2022-08-26T03:00:17.448Z,14.27
2022-08-26T03:02:46.226Z,14.10
2022-08-26T03:05:14.275Z,14.87
2022-08-26T03:07:43.899Z,14.87
2022-08-26T03:10:13.755Z,15.20
2022-08-26T03:12:43.290Z,15.50
2022-08-26T03:15:18.557Z,15.63
2022-08-26T03:17:47.594Z,15.33
2022-08-26T03:20:17.430Z,14.07
2022-08-26T03:22:46.224Z,15.10
2022-08-26T03:25:17.150Z,15.07
2022-08-26T03:27:45.718Z,15.13
2022-08-26T03:30:32.200Z,14.27
2022-08-26T03:33:03.144Z,14.57
2022-08-26T03:35:32.609Z,14.77
2022-08-26T03:38:01.903Z,14.67
2022-08-26T03:40:30.108Z,15.50
2022-08-26T03:42:58.647Z,15.53
2022-08-26T03:45:27.823Z,15.90
2022-08-26T03:47:56.199Z,15.40
2022-08-26T03:50:28.231Z,14.77
2022-08-26T03:52:57.290Z,14.27
2022-08-26T03:55:27.369Z,15.20
2022-08-26T03:57:55.414Z,14.97
2022-08-26T04:00:23.737Z,15.37
2022-08-26T04:02:53.427Z,15.90
2022-08-26T04:05:23.231Z,15.13
2022-08-26T04:07:53.102Z,16.00
2022-08-26T04:10:28.703Z,15.53
2022-08-26T04:12:58.876Z,16.00
2022-08-26T04:15:28.098Z,14.27
2022-08-26T04:17:57.326Z,15.30
2022-08-26T04:20:26.105Z,15.23
2022-08-26T04:22:55.453Z,15.47
2022-08-26T04:25:24.299Z,15.03
2022-08-26T04:27:52.475Z,15.30
2022-08-26T04:30:21.294Z,16.37
2022-08-26T04:32:49.725Z,15.90
2022-08-26T04:35:17.828Z,14.90
2022-08-26T04:37:46.148Z,14.83
2022-08-26T04:40:15.719Z,14.43
2022-08-26T04:42:44.221Z,15.80
2022-08-26T04:45:14.140Z,15.03
2022-08-26T04:47:42.389Z,14.50
2022-08-26T04:50:11.030Z,15.77
2022-08-26T04:52:39.160Z,15.37
2022-08-26T04:55:08.532Z,16.20
2022-08-26T04:57:38.288Z,15.60
2022-08-26T05:00:10.500Z,15.37
2022-08-26T05:02:39.514Z,15.57
2022-08-26T05:05:09.156Z,14.53
2022-08-26T05:07:37.646Z,16.20
2022-08-26T05:10:08.762Z,16.17
2022-08-26T05:12:38.377Z,15.57
2022-08-26T05:15:08.021Z,15.77
2022-08-26T05:17:36.464Z,16.33
2022-08-26T05:20:06.183Z,15.13
2022-08-26T05:22:34.488Z,15.23
2022-08-26T05:25:02.712Z,15.20
2022-08-26T05:27:30.683Z,16.23
2022-08-26T05:30:00.260Z,15.90
2022-08-26T05:32:29.198Z,16.13
2022-08-26T05:34:58.541Z,16.40
2022-08-26T05:37:26.619Z,15.80
2022-08-26T05:39:54.694Z,15.27
2022-08-26T05:42:22.745Z,15.43
2022-08-26T05:44:55.704Z,14.87
2022-08-26T05:47:26.417Z,15.77
2022-08-26T05:49:56.207Z,16.50
2022-08-26T05:52:25.904Z,15.97
2022-08-26T05:54:54.326Z,15.73
2022-08-26T05:57:23.092Z,16.23
2022-08-26T05:59:51.726Z,15.83
2022-08-26T06:02:20.686Z,16.77
2022-08-26T06:04:50.072Z,15.40
2022-08-26T06:07:40.001Z,15.87
2022-08-26T06:10:31.131Z,15.70
2022-08-26T06:12:57.525Z,16.47
2022-08-26T06:15:26.052Z,16.10
2022-08-26T06:17:54.094Z,15.70
2022-08-26T06:20:23.484Z,16.27
2022-08-26T06:23:08.882Z,15.17
2022-08-26T06:25:40.227Z,15.50
2022-08-26T06:28:08.669Z,16.40
2022-08-26T06:30:41.715Z,16.73
2022-08-26T06:33:10.403Z,18.27
2022-08-26T06:35:42.372Z,17.53
2022-08-26T06:38:10.824Z,16.97
2022-08-26T06:40:42.627Z,16.50
2022-08-26T06:43:11.516Z,16.30
2022-08-26T06:45:40.061Z,16.20
2022-08-26T06:48:09.341Z,16.57
2022-08-26T06:50:37.928Z,15.80
2022-08-26T06:53:08.203Z,16.40
2022-08-26T06:55:41.537Z,16.40
2022-08-26T06:58:10.597Z,16.87
2022-08-26T07:00:39.810Z,16.83
2022-08-26T07:03:10.540Z,17.23
2022-08-26T07:05:38.731Z,17.57
2022-08-26T07:08:08.076Z,16.63
2022-08-26T07:10:37.068Z,17.70
2022-08-26T07:13:06.016Z,17.40
2022-08-26T07:15:37.170Z,16.83
2022-08-26T07:18:05.416Z,17.83
2022-08-26T07:20:33.364Z,17.47
2022-08-26T07:23:03.408Z,16.70
2022-08-26T07:25:32.788Z,16.80
2022-08-26T07:28:00.808Z,17.50
2022-08-26T07:30:31.290Z,17.67
2022-08-26T07:33:00.441Z,17.17
2022-08-26T07:35:28.491Z,17.47
2022-08-26T07:37:57.218Z,18.47
2022-08-26T07:40:26.089Z,17.27
2022-08-26T07:42:55.972Z,17.43
2022-08-26T07:45:24.658Z,17.97
2022-08-26T07:47:53.956Z,18.20
2022-08-26T07:50:22.428Z,17.87
2022-08-26T07:53:10.718Z,17.13
2022-08-26T07:55:39.021Z,17.27
2022-08-26T07:58:08.589Z,16.90
2022-08-26T08:00:36.562Z,16.30
2022-08-26T08:03:07.165Z,15.52
2022-08-26T08:05:36.846Z,16.20
2022-08-26T08:08:21.856Z,15.93
2022-08-26T08:10:56.987Z,14.43
2022-08-26T08:13:26.416Z,15.45
2022-08-26T08:15:54.496Z,14.95
2022-08-26T08:18:23.397Z,14.82
2022-08-26T08:21:04.864Z,14.18
2022-08-26T08:23:39.396Z,13.90
2022-08-26T08:26:09.715Z,14.32
2022-08-26T08:28:39.864Z,15.40
2022-08-26T08:31:10.015Z,14.15
2022-08-26T08:33:38.063Z,13.77
2022-08-26T08:36:09.306Z,13.05
2022-08-26T08:38:37.361Z,13.88
2022-08-26T08:41:05.620Z,13.63
2022-08-26T08:43:39.875Z,13.77
2022-08-26T08:46:13.941Z,12.65
2022-08-26T08:48:47.664Z,13.10
2022-08-26T08:51:22.960Z,12.27
2022-08-26T08:53:54.944Z,13.25
2022-08-26T08:56:30.263Z,18.00
2022-08-26T08:59:08.702Z,15.35
2022-08-26T09:01:52.267Z,12.98
2022-08-26T09:04:39.327Z,11.90
2022-08-26T09:07:14.470Z,10.88
2022-08-26T09:09:46.969Z,10.20
2022-08-26T09:12:29.608Z,11.25
2022-08-26T09:15:03.533Z,11.23
2022-08-26T09:17:44.891Z,11.05
2022-08-26T09:20:21.115Z,10.20
2022-08-26T09:22:49.520Z,9.77
2022-08-26T09:25:18.736Z,9.10
2022-08-26T09:27:50.496Z,10.77
2022-08-26T09:30:26.587Z,10.02
2022-08-26T09:33:10.176Z,10.85
2022-08-26T09:35:46.787Z,10.10
2022-08-26T09:38:26.768Z,9.40
2022-08-26T09:40:59.620Z,9.63
2022-08-26T09:43:29.223Z,9.45
2022-08-26T09:46:13.888Z,8.93
2022-08-26T09:48:43.768Z,10.23
2022-08-26T09:51:29.363Z,10.65
2022-08-26T09:53:59.560Z,9.98
2022-08-26T09:56:30.134Z,9.70
2022-08-26T09:58:58.780Z,9.50
2022-08-26T10:01:32.984Z,9.65
2022-08-26T10:04:09.894Z,9.07
2022-08-26T10:06:43.143Z,10.43
2022-08-26T10:09:17.312Z,9.70
2022-08-26T10:11:51.223Z,9.85
2022-08-26T10:14:25.090Z,10.05
2022-08-26T10:16:59.975Z,9.52
2022-08-26T10:19:41.755Z,10.02
2022-08-26T10:22:33.439Z,10.35
2022-08-26T10:25:04.893Z,10.10
2022-08-26T10:27:48.424Z,9.93
2022-08-26T10:30:22.646Z,9.88
2022-08-26T10:32:55.890Z,9.77
2022-08-26T10:35:27.108Z,9.50
2022-08-26T10:37:59.284Z,8.65
2022-08-26T10:40:30.812Z,10.00
2022-08-26T10:43:09.914Z,10.15
2022-08-26T10:45:43.843Z,11.07
2022-08-26T10:48:15.184Z,10.68
2022-08-26T10:50:47.352Z,10.77
2022-08-26T10:53:25.405Z,10.48
2022-08-26T10:56:01.861Z,10.45
2022-08-26T10:58:44.653Z,8.85
2022-08-26T11:01:40.852Z,9.77
2022-08-26T11:04:22.422Z,8.73
2022-08-26T11:07:46.143Z,8.15
2022-08-26T11:10:58.023Z,8.10
2022-08-26T11:14:02.304Z,10.45
2022-08-26T11:16:36.299Z,9.65
2022-08-26T11:19:13.370Z,9.88
2022-08-26T11:21:50.754Z,9.90
2022-08-26T11:25:01.685Z,8.98
2022-08-26T11:28:04.337Z,9.38
2022-08-26T11:30:57.717Z,9.50
2022-08-26T11:34:00.622Z,9.75
2022-08-26T11:37:06.660Z,8.88
2022-08-26T11:39:55.475Z,9.32
2022-08-26T11:42:33.222Z,9.35
2022-08-26T11:45:05.394Z,9.50
2022-08-26T11:47:34.213Z,9.82
2022-08-26T11:50:15.370Z,9.93
2022-08-26T11:52:53.469Z,9.00
2022-08-26T11:55:23.251Z,9.32
2022-08-26T11:57:55.547Z,9.65
2022-08-26T12:00:27.494Z,9.77
2022-08-26T12:03:03.590Z,9.18
2022-08-26T12:05:38.160Z,8.15
2022-08-26T12:08:10.960Z,7.70
2022-08-26T12:10:40.909Z,7.10
